Time;durP1;ratioP1;P1;durP2;ratioP2;P2;SDS_P1;SDS_P2;PMS_P1;PMS_P2;Temp;Humidity;BMP_temperature;BMP_pressure;BME280_temperature;BME280_humidity;BME280_pressure;Samples;Min_cycle;Max_cycle;Signal;HPM_P1;HPM_P2
2019/08/17 00:00:30;;;;;;;6.4;4.25;;;;;;;12.11;100;95169.12;;;;
2019/08/17 00:05:13;;;;;;;6.4;4.25;;;;;;;12.11;100;95169.12;;;;
2019/08/17 00:06:17;;;;;;;6.249999;4.349999;;;;;;;12.03;100;95174.42;;;;
2019/08/17 00:07:19;;;;;;;6.249999;4.349999;;;;;;;12.03;100;95174.42;;;;
2019/08/17 00:08:21;;;;;;;6.249999;4.349999;;;;;;;12.03;100;95174.42;;;;
2019/08/17 00:09:23;;;;;;;6.249999;4.349999;;;;;;;12.03;100;95174.42;;;;
2019/08/17 00:10:26;;;;;;;6.249999;4.349999;;;;;;;12.03;100;95174.42;;;;
2019/08/17 00:11:28;;;;;;;6.249999;4.349999;;;;;;;12.03;100;95174.42;;;;
2019/08/17 00:12:29;;;;;;;6.249999;4.349999;;;;;;;12.03;100;95174.42;;;;
2019/08/17 00:13:31;;;;;;;6.249999;4.349999;;;;;;;12.03;100;95174.42;;;;
2019/08/17 00:14:33;;;;;;;6.249999;4.349999;;;;;;;12.03;100;95174.42;;;;
2019/08/17 00:15:34;;;;;;;6.249999;4.349999;;;;;;;12.03;100;95174.42;;;;
2019/08/17 00:16:36;;;;;;;5.349999;3.900001;;;;;;;12.03;100;95173.49;;;;
2019/08/17 00:17:38;;;;;;;5.349999;3.900001;;;;;;;12.03;100;95173.49;;;;
2019/08/17 00:18:41;;;;;;;5.349999;3.900001;;;;;;;12.03;100;95173.49;;;;
2019/08/17 00:19:43;;;;;;;5.349999;3.900001;;;;;;;12.03;100;95173.49;;;;
2019/08/17 00:20:44;;;;;;;5.349999;3.900001;;;;;;;12.03;100;95173.49;;;;
2019/08/17 00:21:46;;;;;;;5.349999;3.900001;;;;;;;12.03;100;95173.49;;;;
2019/08/17 00:22:49;;;;;;;5.349999;3.900001;;;;;;;12.03;100;95173.49;;;;
2019/08/17 00:23:51;;;;;;;5.349999;3.900001;;;;;;;12.03;100;95173.49;;;;
2019/08/17 00:24:52;;;;;;;5.349999;3.900001;;;;;;;12.03;100;95173.49;;;;
2019/08/17 00:25:54;;;;;;;5.349999;3.900001;;;;;;;12.03;100;95173.49;;;;
2019/08/17 00:26:55;;;;;;;5.750001;3.95;;;;;;;12.15;100;95159.42;;;;
2019/08/17 00:27:57;;;;;;;5.750001;3.95;;;;;;;12.15;100;95159.42;;;;
2019/08/17 00:28:58;;;;;;;5.750001;3.95;;;;;;;12.15;100;95159.42;;;;
2019/08/17 00:30:00;;;;;;;5.750001;3.95;;;;;;;12.15;100;95159.42;;;;
2019/08/17 00:31:04;;;;;;;5.750001;3.95;;;;;;;12.15;100;95159.42;;;;
2019/08/17 00:32:06;;;;;;;5.750001;3.95;;;;;;;12.15;100;95159.42;;;;
2019/08/17 00:33:07;;;;;;;5.750001;3.95;;;;;;;12.15;100;95159.42;;;;
2019/08/17 00:34:09;;;;;;;5.750001;3.95;;;;;;;12.15;100;95159.42;;;;
2019/08/17 00:35:12;;;;;;;5.750001;3.95;;;;;;;12.15;100;95159.42;;;;
2019/08/17 00:36:15;;;;;;;5.750001;3.95;;;;;;;12.15;100;95159.42;;;;
2019/08/17 00:37:17;;;;;;;5.750001;3.95;;;;;;;12.15;100;95159.42;;;;
2019/08/17 00:38:18;;;;;;;6.299999;4.299999;;;;;;;12.14;100;95172.16;;;;
2019/08/17 00:39:20;;;;;;;6.299999;4.299999;;;;;;;12.14;100;95172.16;;;;
2019/08/17 00:40:23;;;;;;;6.299999;4.299999;;;;;;;12.14;100;95172.16;;;;
2019/08/17 00:41:26;;;;;;;6.299999;4.299999;;;;;;;12.14;100;95172.16;;;;
2019/08/17 00:42:27;;;;;;;6.299999;4.299999;;;;;;;12.14;100;95172.16;;;;
2019/08/17 00:43:29;;;;;;;6.299999;4.299999;;;;;;;12.14;100;95172.16;;;;
2019/08/17 00:44:30;;;;;;;6.299999;4.299999;;;;;;;12.14;100;95172.16;;;;
2019/08/17 00:45:32;;;;;;;6.299999;4.299999;;;;;;;12.14;100;95172.16;;;;
2019/08/17 00:46:35;;;;;;;6.299999;4.299999;;;;;;;12.14;100;95172.16;;;;
2019/08/17 00:47:36;;;;;;;6.299999;4.299999;;;;;;;12.14;100;95172.16;;;;
2019/08/17 00:48:38;;;;;;;6.4;4;;;;;;;12.24;100;95191.77;;;;
2019/08/17 00:49:39;;;;;;;6.4;4;;;;;;;12.24;100;95191.77;;;;
2019/08/17 00:50:40;;;;;;;6.4;4;;;;;;;12.24;100;95191.77;;;;
2019/08/17 00:51:42;;;;;;;6.4;4;;;;;;;12.24;100;95191.77;;;;
2019/08/17 00:52:43;;;;;;;6.4;4;;;;;;;12.24;100;95191.77;;;;
2019/08/17 00:53:45;;;;;;;6.4;4;;;;;;;12.24;100;95191.77;;;;
2019/08/17 00:54:46;;;;;;;6.4;4;;;;;;;12.24;100;95191.77;;;;
2019/08/17 00:55:48;;;;;;;6.4;4;;;;;;;12.24;100;95191.77;;;;
2019/08/17 00:56:49;;;;;;;6.4;4;;;;;;;12.24;100;95191.77;;;;
2019/08/17 00:57:50;;;;;;;6.4;4;;;;;;;12.24;100;95191.77;;;;
2019/08/17 00:58:52;;;;;;;7.699999;4.7;;;;;;;12.21;100;95182.79;;;;
2019/08/17 00:59:53;;;;;;;7.699999;4.7;;;;;;;12.21;100;95182.79;;;;
2019/08/17 01:00:54;;;;;;;7.699999;4.7;;;;;;;12.21;100;95182.79;;;;
2019/08/17 01:01:56;;;;;;;7.699999;4.7;;;;;;;12.21;100;95182.79;;;;
2019/08/17 01:02:58;;;;;;;7.699999;4.7;;;;;;;12.21;100;95182.79;;;;
2019/08/17 01:04:00;;;;;;;7.699999;4.7;;;;;;;12.21;100;95182.79;;;;
2019/08/17 01:05:04;;;;;;;7.699999;4.7;;;;;;;12.21;100;95182.79;;;;
2019/08/17 01:06:09;;;;;;;7.699999;4.7;;;;;;;12.21;100;95182.79;;;;
2019/08/17 01:07:15;;;;;;;7.699999;4.7;;;;;;;12.21;100;95182.79;;;;
2019/08/17 01:08:17;;;;;;;7.699999;4.7;;;;;;;12.21;100;95182.79;;;;
2019/08/17 01:09:21;;;;;;;6.05;4.2;;;;;;;12.14;100;95188.4;;;;
2019/08/17 01:10:26;;;;;;;6.05;4.2;;;;;;;12.14;100;95188.4;;;;
2019/08/17 01:11:29;;;;;;;6.05;4.2;;;;;;;12.14;100;95188.4;;;;
2019/08/17 01:12:31;;;;;;;6.05;4.2;;;;;;;12.14;100;95188.4;;;;
2019/08/17 01:13:32;;;;;;;6.05;4.2;;;;;;;12.14;100;95188.4;;;;
2019/08/17 01:14:34;;;;;;;6.05;4.2;;;;;;;12.14;100;95188.4;;;;
2019/08/17 01:15:36;;;;;;;6.05;4.2;;;;;;;12.14;100;95188.4;;;;
2019/08/17 01:16:38;;;;;;;6.05;4.2;;;;;;;12.14;100;95188.4;;;;
2019/08/17 01:17:40;;;;;;;6.05;4.2;;;;;;;12.14;100;95188.4;;;;
2019/08/17 01:18:41;;;;;;;6.05;4.2;;;;;;;12.14;100;95188.4;;;;
2019/08/17 01:19:43;;;;;;;6.05;4.2;;;;;;;12.14;100;95188.4;;;;
2019/08/17 01:20:44;;;;;;;5.4;4.349999;;;;;;;11.93;100;95176.53;;;;
2019/08/17 01:21:48;;;;;;;5.4;4.349999;;;;;;;11.93;100;95176.53;;;;
2019/08/17 01:22:50;;;;;;;5.4;4.349999;;;;;;;11.93;100;95176.53;;;;
2019/08/17 01:23:53;;;;;;;5.4;4.349999;;;;;;;11.93;100;95176.53;;;;
2019/08/17 01:24:54;;;;;;;5.4;4.349999;;;;;;;11.93;100;95176.53;;;;
2019/08/17 01:25:56;;;;;;;5.4;4.349999;;;;;;;11.93;100;95176.53;;;;
2019/08/17 01:26:57;;;;;;;5.4;4.349999;;;;;;;11.93;100;95176.53;;;;
2019/08/17 01:27:59;;;;;;;5.4;4.349999;;;;;;;11.93;100;95176.53;;;;
2019/08/17 01:29:01;;;;;;;5.4;4.349999;;;;;;;11.93;100;95176.53;;;;
2019/08/17 01:30:04;;;;;;;5.4;4.349999;;;;;;;11.93;100;95176.53;;;;
2019/08/17 01:31:07;;;;;;;5.05;4.349999;;;;;;;11.76;100;95163.03;;;;
2019/08/17 01:32:22;;;;;;;5.05;4.349999;;;;;;;11.76;100;95163.03;;;;
2019/08/17 01:33:24;;;;;;;5.05;4.349999;;;;;;;11.76;100;95163.03;;;;
2019/08/17 01:34:26;;;;;;;5.05;4.349999;;;;;;;11.76;100;95163.03;;;;
2019/08/17 01:35:27;;;;;;;5.05;4.349999;;;;;;;11.76;100;95163.03;;;;
2019/08/17 01:36:29;;;;;;;5.05;4.349999;;;;;;;11.76;100;95163.03;;;;
2019/08/17 01:37:31;;;;;;;5.05;4.349999;;;;;;;11.76;100;95163.03;;;;
2019/08/17 01:38:32;;;;;;;5.05;4.349999;;;;;;;11.76;100;95163.03;;;;
2019/08/17 01:39:34;;;;;;;5.05;4.349999;;;;;;;11.76;100;95163.03;;;;
2019/08/17 01:40:35;;;;;;;5.05;4.349999;;;;;;;11.76;100;95163.03;;;;
2019/08/17 01:41:37;;;;;;;5.15;4.65;;;;;;;11.55;100;95152.37;;;;
2019/08/17 01:42:39;;;;;;;5.15;4.65;;;;;;;11.55;100;95152.37;;;;
2019/08/17 01:43:41;;;;;;;5.15;4.65;;;;;;;11.55;100;95152.37;;;;
2019/08/17 01:44:43;;;;;;;5.15;4.65;;;;;;;11.55;100;95152.37;;;;
2019/08/17 01:45:44;;;;;;;5.15;4.65;;;;;;;11.55;100;95152.37;;;;
2019/08/17 01:46:46;;;;;;;5.15;4.65;;;;;;;11.55;100;95152.37;;;;
2019/08/17 01:47:47;;;;;;;5.15;4.65;;;;;;;11.55;100;95152.37;;;;
2019/08/17 01:48:49;;;;;;;5.15;4.65;;;;;;;11.55;100;95152.37;;;;
2019/08/17 01:49:50;;;;;;;5.15;4.65;;;;;;;11.55;100;95152.37;;;;
2019/08/17 01:50:52;;;;;;;5.15;4.65;;;;;;;11.55;100;95152.37;;;;
2019/08/17 01:51:54;;;;;;;5.75;4.3;;;;;;;11.43;100;95161.21;;;;
2019/08/17 01:52:55;;;;;;;5.75;4.3;;;;;;;11.43;100;95161.21;;;;
2019/08/17 01:53:57;;;;;;;5.75;4.3;;;;;;;11.43;100;95161.21;;;;
2019/08/17 01:54:59;;;;;;;5.75;4.3;;;;;;;11.43;100;95161.21;;;;
2019/08/17 01:56:00;;;;;;;5.75;4.3;;;;;;;11.43;100;95161.21;;;;
2019/08/17 01:57:02;;;;;;;5.75;4.3;;;;;;;11.43;100;95161.21;;;;
2019/08/17 01:58:04;;;;;;;5.75;4.3;;;;;;;11.43;100;95161.21;;;;
2019/08/17 01:59:06;;;;;;;5.75;4.3;;;;;;;11.43;100;95161.21;;;;
2019/08/17 02:00:07;;;;;;;5.75;4.3;;;;;;;11.43;100;95161.21;;;;
2019/08/17 02:01:10;;;;;;;5.75;4.3;;;;;;;11.43;100;95161.21;;;;
2019/08/17 02:02:12;;;;;;;6.300001;4.450001;;;;;;;11.25;100;95158.72;;;;
2019/08/17 02:03:14;;;;;;;6.300001;4.450001;;;;;;;11.25;100;95158.72;;;;
2019/08/17 02:04:16;;;;;;;6.300001;4.450001;;;;;;;11.25;100;95158.72;;;;
2019/08/17 02:05:19;;;;;;;6.300001;4.450001;;;;;;;11.25;100;95158.72;;;;
2019/08/17 02:06:21;;;;;;;6.300001;4.450001;;;;;;;11.25;100;95158.72;;;;
2019/08/17 02:07:24;;;;;;;6.300001;4.450001;;;;;;;11.25;100;95158.72;;;;
2019/08/17 02:08:25;;;;;;;6.300001;4.450001;;;;;;;11.25;100;95158.72;;;;
2019/08/17 02:09:31;;;;;;;6.300001;4.450001;;;;;;;11.25;100;95158.72;;;;
2019/08/17 02:10:36;;;;;;;6.300001;4.450001;;;;;;;11.25;100;95158.72;;;;
2019/08/17 02:11:38;;;;;;;6.300001;4.450001;;;;;;;11.25;100;95158.72;;;;
2019/08/17 02:12:40;;;;;;;6.300001;4.450001;;;;;;;11.25;100;95158.72;;;;
2019/08/17 02:13:42;;;;;;;5.349999;4.85;;;;;;;11.16;100;95166.41;;;;
2019/08/17 02:14:44;;;;;;;5.349999;4.85;;;;;;;11.16;100;95166.41;;;;
2019/08/17 02:15:46;;;;;;;5.349999;4.85;;;;;;;11.16;100;95166.41;;;;
2019/08/17 02:16:48;;;;;;;5.349999;4.85;;;;;;;11.16;100;95166.41;;;;
2019/08/17 02:17:51;;;;;;;5.349999;4.85;;;;;;;11.16;100;95166.41;;;;
2019/08/17 02:18:53;;;;;;;5.349999;4.85;;;;;;;11.16;100;95166.41;;;;
2019/08/17 02:19:55;;;;;;;5.349999;4.85;;;;;;;11.16;100;95166.41;;;;
2019/08/17 02:20:57;;;;;;;5.349999;4.85;;;;;;;11.16;100;95166.41;;;;
2019/08/17 02:22:12;;;;;;;5.349999;4.85;;;;;;;11.16;100;95166.41;;;;
2019/08/17 02:23:14;;;;;;;5.349999;4.85;;;;;;;11.16;100;95166.41;;;;
2019/08/17 02:24:15;;;;;;;6.8;4.25;;;;;;;11.16;100;95172.74;;;;
2019/08/17 02:25:17;;;;;;;6.8;4.25;;;;;;;11.16;100;95172.74;;;;
2019/08/17 02:26:19;;;;;;;6.8;4.25;;;;;;;11.16;100;95172.74;;;;
2019/08/17 02:27:20;;;;;;;6.8;4.25;;;;;;;11.16;100;95172.74;;;;
2019/08/17 02:28:22;;;;;;;6.8;4.25;;;;;;;11.16;100;95172.74;;;;
2019/08/17 02:29:24;;;;;;;6.8;4.25;;;;;;;11.16;100;95172.74;;;;
2019/08/17 02:30:25;;;;;;;6.8;4.25;;;;;;;11.16;100;95172.74;;;;
2019/08/17 02:31:29;;;;;;;6.8;4.25;;;;;;;11.16;100;95172.74;;;;
2019/08/17 02:32:31;;;;;;;6.8;4.25;;;;;;;11.16;100;95172.74;;;;
2019/08/17 02:33:33;;;;;;;6.8;4.25;;;;;;;11.16;100;95172.74;;;;
2019/08/17 02:34:35;;;;;;;6.649999;4.45;;;;;;;11.43;100;95163.39;;;;
2019/08/17 02:35:36;;;;;;;6.649999;4.45;;;;;;;11.43;100;95163.39;;;;
2019/08/17 02:36:38;;;;;;;6.649999;4.45;;;;;;;11.43;100;95163.39;;;;
2019/08/17 02:37:39;;;;;;;6.649999;4.45;;;;;;;11.43;100;95163.39;;;;
2019/08/17 02:38:41;;;;;;;6.649999;4.45;;;;;;;11.43;100;95163.39;;;;
2019/08/17 02:39:42;;;;;;;6.649999;4.45;;;;;;;11.43;100;95163.39;;;;
2019/08/17 02:40:44;;;;;;;6.649999;4.45;;;;;;;11.43;100;95163.39;;;;
2019/08/17 02:41:47;;;;;;;6.649999;4.45;;;;;;;11.43;100;95163.39;;;;
2019/08/17 02:42:48;;;;;;;6.649999;4.45;;;;;;;11.43;100;95163.39;;;;
2019/08/17 02:43:49;;;;;;;6.649999;4.45;;;;;;;11.43;100;95163.39;;;;
2019/08/17 02:44:51;;;;;;;5.700001;4.450001;;;;;;;11.61;100;95140.7;;;;
2019/08/17 02:45:52;;;;;;;5.700001;4.450001;;;;;;;11.61;100;95140.7;;;;
2019/08/17 02:47:07;;;;;;;5.700001;4.450001;;;;;;;11.61;100;95140.7;;;;
2019/08/17 02:48:25;;;;;;;5.700001;4.450001;;;;;;;11.61;100;95140.7;;;;
2019/08/17 02:49:29;;;;;;;5.700001;4.450001;;;;;;;11.61;100;95140.7;;;;
2019/08/17 02:50:31;;;;;;;5.700001;4.450001;;;;;;;11.61;100;95140.7;;;;
2019/08/17 02:51:32;;;;;;;5.700001;4.450001;;;;;;;11.61;100;95140.7;;;;
2019/08/17 02:52:34;;;;;;;5.700001;4.450001;;;;;;;11.61;100;95140.7;;;;
2019/08/17 02:53:35;;;;;;;5.700001;4.450001;;;;;;;11.61;100;95140.7;;;;
2019/08/17 02:54:37;;;;;;;5.700001;4.450001;;;;;;;11.61;100;95140.7;;;;
2019/08/17 02:55:38;;;;;;;7.4;4.55;;;;;;;11.78;100;95129.8;;;;
2019/08/17 02:56:39;;;;;;;7.4;4.55;;;;;;;11.78;100;95129.8;;;;
2019/08/17 02:57:41;;;;;;;7.4;4.55;;;;;;;11.78;100;95129.8;;;;
2019/08/17 02:58:43;;;;;;;7.4;4.55;;;;;;;11.78;100;95129.8;;;;
2019/08/17 02:59:44;;;;;;;7.4;4.55;;;;;;;11.78;100;95129.8;;;;
2019/08/17 03:00:45;;;;;;;7.4;4.55;;;;;;;11.78;100;95129.8;;;;
2019/08/17 03:01:47;;;;;;;7.4;4.55;;;;;;;11.78;100;95129.8;;;;
2019/08/17 03:02:48;;;;;;;7.4;4.55;;;;;;;11.78;100;95129.8;;;;
2019/08/17 03:03:50;;;;;;;7.4;4.55;;;;;;;11.78;100;95129.8;;;;
2019/08/17 03:04:51;;;;;;;7.4;4.55;;;;;;;11.78;100;95129.8;;;;
2019/08/17 03:05:52;;;;;;;5.55;4.4;;;;;;;11.92;100;95128.91;;;;
2019/08/17 03:06:54;;;;;;;5.55;4.4;;;;;;;11.92;100;95128.91;;;;
2019/08/17 03:07:55;;;;;;;5.55;4.4;;;;;;;11.92;100;95128.91;;;;
2019/08/17 03:08:56;;;;;;;5.55;4.4;;;;;;;11.92;100;95128.91;;;;
2019/08/17 03:09:58;;;;;;;5.55;4.4;;;;;;;11.92;100;95128.91;;;;
2019/08/17 03:10:59;;;;;;;5.55;4.4;;;;;;;11.92;100;95128.91;;;;
2019/08/17 03:12:01;;;;;;;5.55;4.4;;;;;;;11.92;100;95128.91;;;;
2019/08/17 03:13:04;;;;;;;5.55;4.4;;;;;;;11.92;100;95128.91;;;;
2019/08/17 03:14:06;;;;;;;5.55;4.4;;;;;;;11.92;100;95128.91;;;;
2019/08/17 03:15:07;;;;;;;5.55;4.4;;;;;;;11.92;100;95128.91;;;;
2019/08/17 03:16:10;;;;;;;5.55;4.4;;;;;;;11.92;100;95128.91;;;;
2019/08/17 03:17:13;;;;;;;5.85;4.25;;;;;;;12.2;100;95141.78;;;;
2019/08/17 03:18:14;;;;;;;5.85;4.25;;;;;;;12.2;100;95141.78;;;;
2019/08/17 03:19:16;;;;;;;5.85;4.25;;;;;;;12.2;100;95141.78;;;;
2019/08/17 03:20:17;;;;;;;5.85;4.25;;;;;;;12.2;100;95141.78;;;;
2019/08/17 03:21:22;;;;;;;5.85;4.25;;;;;;;12.2;100;95141.78;;;;
2019/08/17 03:22:24;;;;;;;5.85;4.25;;;;;;;12.2;100;95141.78;;;;
2019/08/17 03:23:25;;;;;;;5.85;4.25;;;;;;;12.2;100;95141.78;;;;
2019/08/17 03:24:27;;;;;;;5.85;4.25;;;;;;;12.2;100;95141.78;;;;
2019/08/17 03:25:28;;;;;;;5.85;4.25;;;;;;;12.2;100;95141.78;;;;
2019/08/17 03:26:29;;;;;;;5.85;4.25;;;;;;;12.2;100;95141.78;;;;
2019/08/17 03:27:30;;;;;;;5.3;3.55;;;;;;;12.46;100;95141.19;;;;
2019/08/17 03:28:32;;;;;;;5.3;3.55;;;;;;;12.46;100;95141.19;;;;
2019/08/17 03:29:33;;;;;;;5.3;3.55;;;;;;;12.46;100;95141.19;;;;
2019/08/17 03:30:35;;;;;;;5.3;3.55;;;;;;;12.46;100;95141.19;;;;
2019/08/17 03:31:45;;;;;;;5.3;3.55;;;;;;;12.46;100;95141.19;;;;
2019/08/17 03:32:46;;;;;;;5.3;3.55;;;;;;;12.46;100;95141.19;;;;
2019/08/17 03:33:47;;;;;;;5.3;3.55;;;;;;;12.46;100;95141.19;;;;
2019/08/17 03:34:49;;;;;;;5.3;3.55;;;;;;;12.46;100;95141.19;;;;
2019/08/17 03:35:50;;;;;;;5.3;3.55;;;;;;;12.46;100;95141.19;;;;
2019/08/17 03:36:51;;;;;;;5.3;3.55;;;;;;;12.46;100;95141.19;;;;
2019/08/17 03:37:52;;;;;;;4.75;3.8;;;;;;;12.68;100;95137.41;;;;
2019/08/17 03:38:54;;;;;;;4.75;3.8;;;;;;;12.68;100;95137.41;;;;
2019/08/17 03:39:55;;;;;;;4.75;3.8;;;;;;;12.68;100;95137.41;;;;
2019/08/17 03:40:56;;;;;;;4.75;3.8;;;;;;;12.68;100;95137.41;;;;
2019/08/17 03:41:58;;;;;;;4.75;3.8;;;;;;;12.68;100;95137.41;;;;
2019/08/17 03:42:59;;;;;;;4.75;3.8;;;;;;;12.68;100;95137.41;;;;
2019/08/17 03:44:01;;;;;;;4.75;3.8;;;;;;;12.68;100;95137.41;;;;
2019/08/17 03:45:03;;;;;;;4.75;3.8;;;;;;;12.68;100;95137.41;;;;
2019/08/17 03:46:05;;;;;;;4.75;3.8;;;;;;;12.68;100;95137.41;;;;
2019/08/17 03:47:06;;;;;;;4.75;3.8;;;;;;;12.68;100;95137.41;;;;
2019/08/17 03:48:09;;;;;;;5.349999;3.4;;;;;;;12.8;100;95131.34;;;;
2019/08/17 03:49:11;;;;;;;5.349999;3.4;;;;;;;12.8;100;95131.34;;;;
2019/08/17 03:50:12;;;;;;;5.349999;3.4;;;;;;;12.8;100;95131.34;;;;
2019/08/17 03:51:14;;;;;;;5.349999;3.4;;;;;;;12.8;100;95131.34;;;;
2019/08/17 03:52:16;;;;;;;5.349999;3.4;;;;;;;12.8;100;95131.34;;;;
2019/08/17 03:53:17;;;;;;;5.349999;3.4;;;;;;;12.8;100;95131.34;;;;
2019/08/17 03:54:19;;;;;;;5.349999;3.4;;;;;;;12.8;100;95131.34;;;;
2019/08/17 03:55:20;;;;;;;5.349999;3.4;;;;;;;12.8;100;95131.34;;;;
2019/08/17 03:56:21;;;;;;;5.349999;3.4;;;;;;;12.8;100;95131.34;;;;
2019/08/17 03:57:23;;;;;;;5.349999;3.4;;;;;;;12.8;100;95131.34;;;;
2019/08/17 03:58:24;;;;;;;5.349999;3.4;;;;;;;12.8;100;95131.34;;;;
2019/08/17 03:59:25;;;;;;;5.2;3.55;;;;;;;12.96;100;95122.42;;;;
2019/08/17 04:00:27;;;;;;;5.2;3.55;;;;;;;12.96;100;95122.42;;;;
2019/08/17 04:01:29;;;;;;;5.2;3.55;;;;;;;12.96;100;95122.42;;;;
2019/08/17 04:02:30;;;;;;;5.2;3.55;;;;;;;12.96;100;95122.42;;;;
2019/08/17 04:03:31;;;;;;;5.2;3.55;;;;;;;12.96;100;95122.42;;;;
2019/08/17 04:04:33;;;;;;;5.2;3.55;;;;;;;12.96;100;95122.42;;;;
2019/08/17 04:05:34;;;;;;;5.2;3.55;;;;;;;12.96;100;95122.42;;;;
2019/08/17 04:06:36;;;;;;;5.2;3.55;;;;;;;12.96;100;95122.42;;;;
2019/08/17 04:07:37;;;;;;;5.2;3.55;;;;;;;12.96;100;95122.42;;;;
2019/08/17 04:08:38;;;;;;;5.2;3.55;;;;;;;12.96;100;95122.42;;;;
2019/08/17 04:09:40;;;;;;;4.9;3.7;;;;;;;12.99;100;95142.27;;;;
2019/08/17 04:10:41;;;;;;;4.9;3.7;;;;;;;12.99;100;95142.27;;;;
2019/08/17 04:11:44;;;;;;;4.9;3.7;;;;;;;12.99;100;95142.27;;;;
2019/08/17 04:12:45;;;;;;;4.9;3.7;;;;;;;12.99;100;95142.27;;;;
2019/08/17 04:13:46;;;;;;;4.9;3.7;;;;;;;12.99;100;95142.27;;;;
2019/08/17 04:14:47;;;;;;;4.9;3.7;;;;;;;12.99;100;95142.27;;;;
2019/08/17 04:15:49;;;;;;;4.9;3.7;;;;;;;12.99;100;95142.27;;;;
2019/08/17 04:16:50;;;;;;;4.9;3.7;;;;;;;12.99;100;95142.27;;;;
2019/08/17 04:17:51;;;;;;;4.9;3.7;;;;;;;12.99;100;95142.27;;;;
2019/08/17 04:18:52;;;;;;;4.9;3.7;;;;;;;12.99;100;95142.27;;;;
2019/08/17 04:19:53;;;;;;;4.400001;3.400001;;;;;;;12.95;100;95133;;;;
2019/08/17 04:20:55;;;;;;;4.400001;3.400001;;;;;;;12.95;100;95133;;;;
2019/08/17 04:21:56;;;;;;;4.400001;3.400001;;;;;;;12.95;100;95133;;;;
2019/08/17 04:22:57;;;;;;;4.400001;3.400001;;;;;;;12.95;100;95133;;;;
2019/08/17 04:23:58;;;;;;;4.400001;3.400001;;;;;;;12.95;100;95133;;;;
2019/08/17 04:24:59;;;;;;;4.400001;3.400001;;;;;;;12.95;100;95133;;;;
2019/08/17 04:26:01;;;;;;;4.400001;3.400001;;;;;;;12.95;100;95133;;;;
2019/08/17 04:27:03;;;;;;;4.400001;3.400001;;;;;;;12.95;100;95133;;;;
2019/08/17 04:28:04;;;;;;;4.400001;3.400001;;;;;;;12.95;100;95133;;;;
2019/08/17 04:29:06;;;;;;;4.400001;3.400001;;;;;;;12.95;100;95133;;;;
2019/08/17 04:30:07;;;;;;;4.400001;3.400001;;;;;;;12.95;100;95133;;;;
2019/08/17 04:31:09;;;;;;;6.5;3.8;;;;;;;12.84;100;95125.67;;;;
2019/08/17 04:32:10;;;;;;;6.5;3.8;;;;;;;12.84;100;95125.67;;;;
2019/08/17 04:33:11;;;;;;;6.5;3.8;;;;;;;12.84;100;95125.67;;;;
2019/08/17 04:34:15;;;;;;;6.5;3.8;;;;;;;12.84;100;95125.67;;;;
2019/08/17 04:35:16;;;;;;;6.5;3.8;;;;;;;12.84;100;95125.67;;;;
2019/08/17 04:36:17;;;;;;;6.5;3.8;;;;;;;12.84;100;95125.67;;;;
2019/08/17 04:37:19;;;;;;;6.5;3.8;;;;;;;12.84;100;95125.67;;;;
2019/08/17 04:38:20;;;;;;;6.5;3.8;;;;;;;12.84;100;95125.67;;;;
2019/08/17 04:39:21;;;;;;;6.5;3.8;;;;;;;12.84;100;95125.67;;;;
2019/08/17 04:40:22;;;;;;;6.5;3.8;;;;;;;12.84;100;95125.67;;;;
2019/08/17 04:41:24;;;;;;;4.149999;3.75;;;;;;;13;100;95134.29;;;;
2019/08/17 04:42:25;;;;;;;4.149999;3.75;;;;;;;13;100;95134.29;;;;
2019/08/17 04:43:26;;;;;;;4.149999;3.75;;;;;;;13;100;95134.29;;;;
2019/08/17 04:44:27;;;;;;;4.149999;3.75;;;;;;;13;100;95134.29;;;;
2019/08/17 04:45:28;;;;;;;4.149999;3.75;;;;;;;13;100;95134.29;;;;
2019/08/17 04:46:30;;;;;;;4.149999;3.75;;;;;;;13;100;95134.29;;;;
2019/08/17 04:47:31;;;;;;;4.149999;3.75;;;;;;;13;100;95134.29;;;;
2019/08/17 04:48:32;;;;;;;4.149999;3.75;;;;;;;13;100;95134.29;;;;
2019/08/17 04:49:34;;;;;;;4.149999;3.75;;;;;;;13;100;95134.29;;;;
2019/08/17 04:50:35;;;;;;;4.149999;3.75;;;;;;;13;100;95134.29;;;;
2019/08/17 04:51:36;;;;;;;4.149999;3.75;;;;;;;13;100;95134.29;;;;
2019/08/17 04:52:37;;;;;;;3.9;3.1;;;;;;;13.18;100;95136.27;;;;
2019/08/17 04:53:38;;;;;;;3.9;3.1;;;;;;;13.18;100;95136.27;;;;
2019/08/17 04:54:40;;;;;;;3.9;3.1;;;;;;;13.18;100;95136.27;;;;
2019/08/17 04:55:41;;;;;;;3.9;3.1;;;;;;;13.18;100;95136.27;;;;
2019/08/17 04:56:42;;;;;;;3.9;3.1;;;;;;;13.18;100;95136.27;;;;
2019/08/17 04:57:43;;;;;;;3.9;3.1;;;;;;;13.18;100;95136.27;;;;
2019/08/17 04:58:44;;;;;;;3.9;3.1;;;;;;;13.18;100;95136.27;;;;
2019/08/17 04:59:45;;;;;;;3.9;3.1;;;;;;;13.18;100;95136.27;;;;
2019/08/17 05:00:46;;;;;;;3.9;3.1;;;;;;;13.18;100;95136.27;;;;
2019/08/17 05:01:48;;;;;;;3.9;3.1;;;;;;;13.18;100;95136.27;;;;
2019/08/17 05:02:49;;;;;;;3.9;3.2;;;;;;;13.46;100;95132.05;;;;
2019/08/17 05:03:50;;;;;;;3.9;3.2;;;;;;;13.46;100;95132.05;;;;
2019/08/17 05:04:52;;;;;;;3.9;3.2;;;;;;;13.46;100;95132.05;;;;
2019/08/17 05:05:53;;;;;;;3.9;3.2;;;;;;;13.46;100;95132.05;;;;
2019/08/17 05:06:54;;;;;;;3.9;3.2;;;;;;;13.46;100;95132.05;;;;
2019/08/17 05:07:55;;;;;;;3.9;3.2;;;;;;;13.46;100;95132.05;;;;
2019/08/17 05:08:56;;;;;;;3.9;3.2;;;;;;;13.46;100;95132.05;;;;
2019/08/17 05:09:57;;;;;;;3.9;3.2;;;;;;;13.46;100;95132.05;;;;
2019/08/17 05:10:59;;;;;;;3.9;3.2;;;;;;;13.46;100;95132.05;;;;
2019/08/17 05:12:00;;;;;;;3.9;3.2;;;;;;;13.46;100;95132.05;;;;
2019/08/17 05:13:01;;;;;;;4.2;3;;;;;;;13.68;100;95119.23;;;;
2019/08/17 05:14:03;;;;;;;4.2;3;;;;;;;13.68;100;95119.23;;;;
2019/08/17 05:15:04;;;;;;;4.2;3;;;;;;;13.68;100;95119.23;;;;
2019/08/17 05:16:07;;;;;;;4.2;3;;;;;;;13.68;100;95119.23;;;;
2019/08/17 05:17:09;;;;;;;4.2;3;;;;;;;13.68;100;95119.23;;;;
2019/08/17 05:18:10;;;;;;;4.2;3;;;;;;;13.68;100;95119.23;;;;
2019/08/17 05:19:11;;;;;;;4.2;3;;;;;;;13.68;100;95119.23;;;;
2019/08/17 05:20:12;;;;;;;4.2;3;;;;;;;13.68;100;95119.23;;;;
2019/08/17 05:21:14;;;;;;;4.2;3;;;;;;;13.68;100;95119.23;;;;
2019/08/17 05:22:15;;;;;;;4.2;3;;;;;;;13.68;100;95119.23;;;;
2019/08/17 05:23:16;;;;;;;4.2;3;;;;;;;13.68;100;95119.23;;;;
2019/08/17 05:24:18;;;;;;;4.85;3.4;;;;;;;13.99;100;95126.53;;;;
2019/08/17 05:25:19;;;;;;;4.85;3.4;;;;;;;13.99;100;95126.53;;;;
2019/08/17 05:26:20;;;;;;;4.85;3.4;;;;;;;13.99;100;95126.53;;;;
2019/08/17 05:27:21;;;;;;;4.85;3.4;;;;;;;13.99;100;95126.53;;;;
2019/08/17 05:28:23;;;;;;;4.85;3.4;;;;;;;13.99;100;95126.53;;;;
2019/08/17 05:29:24;;;;;;;4.85;3.4;;;;;;;13.99;100;95126.53;;;;
2019/08/17 05:30:25;;;;;;;4.85;3.4;;;;;;;13.99;100;95126.53;;;;
2019/08/17 05:31:34;;;;;;;4.85;3.4;;;;;;;13.99;100;95126.53;;;;
2019/08/17 05:32:35;;;;;;;4.85;3.4;;;;;;;13.99;100;95126.53;;;;
2019/08/17 05:33:37;;;;;;;4.85;3.4;;;;;;;13.99;100;95126.53;;;;
2019/08/17 05:34:38;;;;;;;6.1;3.15;;;;;;;14.29;100;95101.49;;;;
2019/08/17 05:35:39;;;;;;;6.1;3.15;;;;;;;14.29;100;95101.49;;;;
2019/08/17 05:36:40;;;;;;;6.1;3.15;;;;;;;14.29;100;95101.49;;;;
2019/08/17 05:37:41;;;;;;;6.1;3.15;;;;;;;14.29;100;95101.49;;;;
2019/08/17 05:38:42;;;;;;;6.1;3.15;;;;;;;14.29;100;95101.49;;;;
2019/08/17 05:39:44;;;;;;;6.1;3.15;;;;;;;14.29;100;95101.49;;;;
2019/08/17 05:40:45;;;;;;;6.1;3.15;;;;;;;14.29;100;95101.49;;;;
2019/08/17 05:41:46;;;;;;;6.1;3.15;;;;;;;14.29;100;95101.49;;;;
2019/08/17 05:42:47;;;;;;;6.1;3.15;;;;;;;14.29;100;95101.49;;;;
2019/08/17 05:43:48;;;;;;;6.1;3.15;;;;;;;14.29;100;95101.49;;;;
2019/08/17 05:44:49;;;;;;;4.600001;2.85;;;;;;;14.54;100;95116.97;;;;
2019/08/17 05:45:51;;;;;;;4.600001;2.85;;;;;;;14.54;100;95116.97;;;;
2019/08/17 05:46:52;;;;;;;4.600001;2.85;;;;;;;14.54;100;95116.97;;;;
2019/08/17 05:47:53;;;;;;;4.600001;2.85;;;;;;;14.54;100;95116.97;;;;
2019/08/17 05:48:54;;;;;;;4.600001;2.85;;;;;;;14.54;100;95116.97;;;;
2019/08/17 05:49:55;;;;;;;4.600001;2.85;;;;;;;14.54;100;95116.97;;;;
2019/08/17 05:50:56;;;;;;;4.600001;2.85;;;;;;;14.54;100;95116.97;;;;
2019/08/17 05:51:58;;;;;;;4.600001;2.85;;;;;;;14.54;100;95116.97;;;;
2019/08/17 05:52:59;;;;;;;4.600001;2.85;;;;;;;14.54;100;95116.97;;;;
2019/08/17 05:54:00;;;;;;;4.600001;2.85;;;;;;;14.54;100;95116.97;;;;
2019/08/17 05:55:01;;;;;;;4.600001;2.85;;;;;;;14.54;100;95116.97;;;;
2019/08/17 05:56:04;;;;;;;4.4;3.1;;;;;;;14.67;100;95121.94;;;;
2019/08/17 05:57:05;;;;;;;4.4;3.1;;;;;;;14.67;100;95121.94;;;;
2019/08/17 05:58:06;;;;;;;4.4;3.1;;;;;;;14.67;100;95121.94;;;;
2019/08/17 05:59:07;;;;;;;4.4;3.1;;;;;;;14.67;100;95121.94;;;;
2019/08/17 06:00:08;;;;;;;4.4;3.1;;;;;;;14.67;100;95121.94;;;;
2019/08/17 06:01:10;;;;;;;4.4;3.1;;;;;;;14.67;100;95121.94;;;;
2019/08/17 06:02:11;;;;;;;4.4;3.1;;;;;;;14.67;100;95121.94;;;;
2019/08/17 06:03:12;;;;;;;4.4;3.1;;;;;;;14.67;100;95121.94;;;;
2019/08/17 06:04:14;;;;;;;4.4;3.1;;;;;;;14.67;100;95121.94;;;;
2019/08/17 06:05:15;;;;;;;4.4;3.1;;;;;;;14.67;100;95121.94;;;;
2019/08/17 06:06:16;;;;;;;4.4;3;;;;;;;15.05;100;95146.44;;;;
2019/08/17 06:07:17;;;;;;;4.4;3;;;;;;;15.05;100;95146.44;;;;
2019/08/17 06:08:18;;;;;;;4.4;3;;;;;;;15.05;100;95146.44;;;;
2019/08/17 06:09:20;;;;;;;4.4;3;;;;;;;15.05;100;95146.44;;;;
2019/08/17 06:10:21;;;;;;;4.4;3;;;;;;;15.05;100;95146.44;;;;
2019/08/17 06:11:24;;;;;;;4.4;3;;;;;;;15.05;100;95146.44;;;;
2019/08/17 06:12:25;;;;;;;4.4;3;;;;;;;15.05;100;95146.44;;;;
2019/08/17 06:13:26;;;;;;;4.4;3;;;;;;;15.05;100;95146.44;;;;